sensor_id;sensor_type;location;lat;lon;timestamp;temperature;humidity
7016;DHT22;3548;48.402;9.990;2022-10-04T00:00:57;6.60;99.90
7016;DHT22;3548;48.402;9.990;2022-10-04T00:03:31;6.60;99.90
7016;DHT22;3548;48.402;9.990;2022-10-04T00:05:59;6.60;99.90
7016;DHT22;3548;48.402;9.990;2022-10-04T00:08:36;6.60;99.90
7016;DHT22;3548;48.402;9.990;2022-10-04T00:11:28;6.50;99.90
7016;DHT22;3548;48.402;9.990;2022-10-04T00:13:57;6.50;99.90
7016;DHT22;3548;48.402;9.990;2022-10-04T00:16:33;6.50;99.90
7016;DHT22;3548;48.402;9.990;2022-10-04T00:19:46;6.40;99.90
7016;DHT22;3548;48.402;9.990;2022-10-04T00:22:10;6.40;99.90
7016;DHT22;3548;48.402;9.990;2022-10-04T00:24:37;6.40;99.90
7016;DHT22;3548;48.402;9.990;2022-10-04T00:27:25;6.40;99.90
7016;DHT22;3548;48.402;9.990;2022-10-04T00:38:07;6.20;99.90
7016;DHT22;3548;48.402;9.990;2022-10-04T00:40:38;6.20;99.90
7016;DHT22;3548;48.402;9.990;2022-10-04T00:43:10;6.20;99.90
7016;DHT22;3548;48.402;9.990;2022-10-04T00:50:43;6.10;99.90
7016;DHT22;3548;48.402;9.990;2022-10-04T00:56:29;6.10;99.90
7016;DHT22;3548;48.402;9.990;2022-10-04T01:01:26;6.00;99.90
7016;DHT22;3548;48.402;9.990;2022-10-04T01:03:53;6.00;99.90
7016;DHT22;3548;48.402;9.990;2022-10-04T01:06:22;6.00;99.90
7016;DHT22;3548;48.402;9.990;2022-10-04T01:08:51;6.00;99.90
7016;DHT22;3548;48.402;9.990;2022-10-04T01:11:26;6.00;99.90
7016;DHT22;3548;48.402;9.990;2022-10-04T01:13:58;6.10;99.90
7016;DHT22;3548;48.402;9.990;2022-10-04T01:16:28;6.10;99.90
7016;DHT22;3548;48.402;9.990;2022-10-04T01:18:54;6.10;99.90
7016;DHT22;3548;48.402;9.990;2022-10-04T01:21:30;6.10;99.90
7016;DHT22;3548;48.402;9.990;2022-10-04T01:31:24;5.90;99.90
7016;DHT22;3548;48.402;9.990;2022-10-04T01:33:51;5.90;99.90
7016;DHT22;3548;48.402;9.990;2022-10-04T01:36:17;5.90;99.90
7016;DHT22;3548;48.402;9.990;2022-10-04T01:38:43;5.90;99.90
7016;DHT22;3548;48.402;9.990;2022-10-04T01:41:10;5.80;99.90
7016;DHT22;3548;48.402;9.990;2022-10-04T01:43:37;5.80;99.90
7016;DHT22;3548;48.402;9.990;2022-10-04T01:46:33;5.90;99.90
7016;DHT22;3548;48.402;9.990;2022-10-04T01:49:04;5.90;99.90
7016;DHT22;3548;48.402;9.990;2022-10-04T01:51:54;5.90;99.90
7016;DHT22;3548;48.402;9.990;2022-10-04T01:54:35;5.80;99.90
7016;DHT22;3548;48.402;9.990;2022-10-04T01:57:12;5.80;99.90
7016;DHT22;3548;48.402;9.990;2022-10-04T02:00:00;5.70;99.90
7016;DHT22;3548;48.402;9.990;2022-10-04T02:02:39;5.70;99.90
7016;DHT22;3548;48.402;9.990;2022-10-04T02:05:08;5.70;99.90
7016;DHT22;3548;48.402;9.990;2022-10-04T02:07:35;5.70;99.90
7016;DHT22;3548;48.402;9.990;2022-10-04T02:10:07;5.60;99.90
7016;DHT22;3548;48.402;9.990;2022-10-04T02:12:35;5.60;99.90
7016;DHT22;3548;48.402;9.990;2022-10-04T02:15:05;5.60;99.90
7016;DHT22;3548;48.402;9.990;2022-10-04T02:17:33;5.60;99.90
7016;DHT22;3548;48.402;9.990;2022-10-04T02:20:10;5.60;99.90
7016;DHT22;3548;48.402;9.990;2022-10-04T02:22:36;5.60;99.90
7016;DHT22;3548;48.402;9.990;2022-10-04T02:25:02;5.60;99.90
7016;DHT22;3548;48.402;9.990;2022-10-04T02:27:28;5.60;99.90
7016;DHT22;3548;48.402;9.990;2022-10-04T02:30:04;5.60;99.90
7016;DHT22;3548;48.402;9.990;2022-10-04T02:32:31;5.60;99.90
7016;DHT22;3548;48.402;9.990;2022-10-04T02:35:16;5.60;99.90
7016;DHT22;3548;48.402;9.990;2022-10-04T02:37:43;5.60;99.90
7016;DHT22;3548;48.402;9.990;2022-10-04T02:40:13;5.60;99.90
7016;DHT22;3548;48.402;9.990;2022-10-04T02:42:47;5.50;99.90
7016;DHT22;3548;48.402;9.990;2022-10-04T02:45:28;5.50;99.90
7016;DHT22;3548;48.402;9.990;2022-10-04T02:48:00;5.50;99.90
7016;DHT22;3548;48.402;9.990;2022-10-04T02:50:35;5.50;99.90
7016;DHT22;3548;48.402;9.990;2022-10-04T02:53:36;5.50;99.90
7016;DHT22;3548;48.402;9.990;2022-10-04T02:56:08;5.50;99.90
7016;DHT22;3548;48.402;9.990;2022-10-04T02:58:37;5.50;99.90
7016;DHT22;3548;48.402;9.990;2022-10-04T03:01:03;5.50;99.90
7016;DHT22;3548;48.402;9.990;2022-10-04T03:03:30;5.50;99.90
7016;DHT22;3548;48.402;9.990;2022-10-04T03:06:09;5.50;99.90
7016;DHT22;3548;48.402;9.990;2022-10-04T03:08:50;5.50;99.90
7016;DHT22;3548;48.402;9.990;2022-10-04T03:11:19;5.50;99.90
7016;DHT22;3548;48.402;9.990;2022-10-04T03:13:50;5.50;99.90
7016;DHT22;3548;48.402;9.990;2022-10-04T03:16:17;5.40;99.90
7016;DHT22;3548;48.402;9.990;2022-10-04T03:18:45;5.40;99.90
7016;DHT22;3548;48.402;9.990;2022-10-04T03:21:13;5.40;99.90
7016;DHT22;3548;48.402;9.990;2022-10-04T03:23:41;5.30;99.90
7016;DHT22;3548;48.402;9.990;2022-10-04T03:28:36;5.20;99.90
7016;DHT22;3548;48.402;9.990;2022-10-04T03:31:02;5.20;99.90
7016;DHT22;3548;48.402;9.990;2022-10-04T03:33:28;5.20;99.90
7016;DHT22;3548;48.402;9.990;2022-10-04T03:35:56;5.20;99.90
7016;DHT22;3548;48.402;9.990;2022-10-04T03:38:23;5.20;99.90
7016;DHT22;3548;48.402;9.990;2022-10-04T03:40:55;5.20;99.90
7016;DHT22;3548;48.402;9.990;2022-10-04T03:43:24;5.20;99.90
7016;DHT22;3548;48.402;9.990;2022-10-04T03:45:51;5.10;99.90
7016;DHT22;3548;48.402;9.990;2022-10-04T03:48:24;5.10;99.90
7016;DHT22;3548;48.402;9.990;2022-10-04T03:50:52;5.10;99.90
7016;DHT22;3548;48.402;9.990;2022-10-04T03:53:30;5.10;99.90
7016;DHT22;3548;48.402;9.990;2022-10-04T03:55:57;5.10;99.90
7016;DHT22;3548;48.402;9.990;2022-10-04T03:58:23;5.10;99.90
7016;DHT22;3548;48.402;9.990;2022-10-04T04:04:00;5.10;99.90
7016;DHT22;3548;48.402;9.990;2022-10-04T04:06:36;5.10;99.90
7016;DHT22;3548;48.402;9.990;2022-10-04T04:09:05;5.10;99.90
7016;DHT22;3548;48.402;9.990;2022-10-04T04:11:32;5.10;99.90
7016;DHT22;3548;48.402;9.990;2022-10-04T04:14:11;5.10;99.90
7016;DHT22;3548;48.402;9.990;2022-10-04T04:16:38;5.10;99.90
7016;DHT22;3548;48.402;9.990;2022-10-04T04:19:10;5.10;99.90
7016;DHT22;3548;48.402;9.990;2022-10-04T04:21:37;5.10;99.90
7016;DHT22;3548;48.402;9.990;2022-10-04T04:24:06;5.00;99.90
7016;DHT22;3548;48.402;9.990;2022-10-04T04:26:49;5.00;99.90
7016;DHT22;3548;48.402;9.990;2022-10-04T04:31:57;5.10;99.90
7016;DHT22;3548;48.402;9.990;2022-10-04T04:34:56;5.10;99.90
7016;DHT22;3548;48.402;9.990;2022-10-04T04:37:22;5.10;99.90
7016;DHT22;3548;48.402;9.990;2022-10-04T04:39:49;5.10;99.90
7016;DHT22;3548;48.402;9.990;2022-10-04T04:42:26;5.00;99.90
7016;DHT22;3548;48.402;9.990;2022-10-04T04:45:13;5.00;99.90
7016;DHT22;3548;48.402;9.990;2022-10-04T04:47:44;5.00;99.90
7016;DHT22;3548;48.402;9.990;2022-10-04T04:50:19;5.10;99.90
7016;DHT22;3548;48.402;9.990;2022-10-04T04:52:58;5.10;99.90
7016;DHT22;3548;48.402;9.990;2022-10-04T04:55:28;5.20;99.90
7016;DHT22;3548;48.402;9.990;2022-10-04T04:57:56;5.20;99.90
7016;DHT22;3548;48.402;9.990;2022-10-04T05:00:31;5.30;99.90
7016;DHT22;3548;48.402;9.990;2022-10-04T05:02:59;5.30;99.90
7016;DHT22;3548;48.402;9.990;2022-10-04T05:16:35;5.20;99.90
7016;DHT22;3548;48.402;9.990;2022-10-04T05:19:11;5.10;99.90
7016;DHT22;3548;48.402;9.990;2022-10-04T05:21:42;5.10;99.90
7016;DHT22;3548;48.402;9.990;2022-10-04T05:24:32;5.10;99.90
7016;DHT22;3548;48.402;9.990;2022-10-04T05:27:01;5.10;99.90
7016;DHT22;3548;48.402;9.990;2022-10-04T05:29:35;5.10;99.90
7016;DHT22;3548;48.402;9.990;2022-10-04T05:34:39;5.00;99.90
7016;DHT22;3548;48.402;9.990;2022-10-04T05:37:31;5.00;99.90
7016;DHT22;3548;48.402;9.990;2022-10-04T05:40:07;5.00;99.90
7016;DHT22;3548;48.402;9.990;2022-10-04T05:42:44;5.00;99.90
7016;DHT22;3548;48.402;9.990;2022-10-04T05:45:21;5.10;99.90
7016;DHT22;3548;48.402;9.990;2022-10-04T05:47:50;5.10;99.90
7016;DHT22;3548;48.402;9.990;2022-10-04T05:50:32;5.20;99.90
7016;DHT22;3548;48.402;9.990;2022-10-04T05:56:08;5.40;99.90
7016;DHT22;3548;48.402;9.990;2022-10-04T05:59:00;5.40;99.90
7016;DHT22;3548;48.402;9.990;2022-10-04T06:06:55;5.60;99.90
7016;DHT22;3548;48.402;9.990;2022-10-04T06:10:02;5.70;99.90
7016;DHT22;3548;48.402;9.990;2022-10-04T06:20:57;5.80;99.90
7016;DHT22;3548;48.402;9.990;2022-10-04T06:23:27;5.90;99.90
7016;DHT22;3548;48.402;9.990;2022-10-04T06:26:04;6.00;99.90
7016;DHT22;3548;48.402;9.990;2022-10-04T06:29:02;6.10;99.90
7016;DHT22;3548;48.402;9.990;2022-10-04T06:31:57;6.10;99.90
7016;DHT22;3548;48.402;9.990;2022-10-04T06:34:50;6.20;99.90
7016;DHT22;3548;48.402;9.990;2022-10-04T06:56:34;6.90;99.90
7016;DHT22;3548;48.402;9.990;2022-10-04T07:02:20;7.10;99.90
7016;DHT22;3548;48.402;9.990;2022-10-04T07:05:29;7.20;99.90
7016;DHT22;3548;48.402;9.990;2022-10-04T07:07:51;7.40;99.90
7016;DHT22;3548;48.402;9.990;2022-10-04T07:15:51;7.90;99.90
7016;DHT22;3548;48.402;9.990;2022-10-04T07:18:53;8.00;99.90
7016;DHT22;3548;48.402;9.990;2022-10-04T07:21:21;8.10;99.90
7016;DHT22;3548;48.402;9.990;2022-10-04T07:23:51;8.20;99.90
7016;DHT22;3548;48.402;9.990;2022-10-04T07:28:55;8.40;99.90
7016;DHT22;3548;48.402;9.990;2022-10-04T07:31:40;8.50;99.90
7016;DHT22;3548;48.402;9.990;2022-10-04T07:34:14;8.60;99.90
7016;DHT22;3548;48.402;9.990;2022-10-04T07:36:47;8.60;99.90
7016;DHT22;3548;48.402;9.990;2022-10-04T07:41:52;8.60;99.90
7016;DHT22;3548;48.402;9.990;2022-10-04T07:44:34;8.70;99.90
7016;DHT22;3548;48.402;9.990;2022-10-04T07:47:27;8.70;99.90
7016;DHT22;3548;48.402;9.990;2022-10-04T07:49:54;8.80;99.90
7016;DHT22;3548;48.402;9.990;2022-10-04T07:52:42;9.00;99.90
7016;DHT22;3548;48.402;9.990;2022-10-04T07:58:27;9.20;99.90
7016;DHT22;3548;48.402;9.990;2022-10-04T08:09:27;9.40;99.90
7016;DHT22;3548;48.402;9.990;2022-10-04T08:14:45;9.50;99.90
7016;DHT22;3548;48.402;9.990;2022-10-04T08:17:43;9.50;99.90
7016;DHT22;3548;48.402;9.990;2022-10-04T08:31:02;9.70;99.90
7016;DHT22;3548;48.402;9.990;2022-10-04T08:34:05;9.80;99.90
7016;DHT22;3548;48.402;9.990;2022-10-04T08:47:28;10.30;99.90
7016;DHT22;3548;48.402;9.990;2022-10-04T08:50:26;10.40;99.90
7016;DHT22;3548;48.402;9.990;2022-10-04T09:10:49;11.30;99.90
7016;DHT22;3548;48.402;9.990;2022-10-04T09:16:07;11.80;99.90
7016;DHT22;3548;48.402;9.990;2022-10-04T09:21:57;12.00;99.90
7016;DHT22;3548;48.402;9.990;2022-10-04T09:30:16;11.90;99.90
7016;DHT22;3548;48.402;9.990;2022-10-04T09:41:12;11.90;99.90
7016;DHT22;3548;48.402;9.990;2022-10-04T09:52:12;12.70;99.90
7016;DHT22;3548;48.402;9.990;2022-10-04T09:55:01;12.90;99.90
7016;DHT22;3548;48.402;9.990;2022-10-04T10:03:48;13.40;99.90
7016;DHT22;3548;48.402;9.990;2022-10-04T10:06:29;13.50;99.90
7016;DHT22;3548;48.402;9.990;2022-10-04T10:18:29;14.00;99.90
7016;DHT22;3548;48.402;9.990;2022-10-04T10:39:49;14.70;99.90
7016;DHT22;3548;48.402;9.990;2022-10-04T10:42:35;14.70;99.90
7016;DHT22;3548;48.402;9.990;2022-10-04T10:45:41;14.80;99.90
7016;DHT22;3548;48.402;9.990;2022-10-04T10:50:53;14.80;99.90
7016;DHT22;3548;48.402;9.990;2022-10-04T10:56:34;14.80;99.90
7016;DHT22;3548;48.402;9.990;2022-10-04T10:59:36;14.80;99.90
7016;DHT22;3548;48.402;9.990;2022-10-04T11:02:23;14.80;99.90
7016;DHT22;3548;48.402;9.990;2022-10-04T11:23:46;15.30;99.90
7016;DHT22;3548;48.402;9.990;2022-10-04T11:40:35;15.70;99.90
7016;DHT22;3548;48.402;9.990;2022-10-04T11:43:10;15.70;99.90
7016;DHT22;3548;48.402;9.990;2022-10-04T11:48:49;15.80;99.90
7016;DHT22;3548;48.402;9.990;2022-10-04T12:05:32;16.20;99.90
7016;DHT22;3548;48.402;9.990;2022-10-04T12:08:30;16.30;99.90
7016;DHT22;3548;48.402;9.990;2022-10-04T12:14:40;16.50;99.90
7016;DHT22;3548;48.402;9.990;2022-10-04T12:25:58;16.70;99.90
7016;DHT22;3548;48.402;9.990;2022-10-04T12:31:29;17.00;99.90
7016;DHT22;3548;48.402;9.990;2022-10-04T12:36:58;17.10;99.90
7016;DHT22;3548;48.402;9.990;2022-10-04T12:45:30;16.90;99.90
7016;DHT22;3548;48.402;9.990;2022-10-04T12:48:19;17.00;99.90
7016;DHT22;3548;48.402;9.990;2022-10-04T12:56:44;17.20;99.90
7016;DHT22;3548;48.402;9.990;2022-10-04T12:59:41;17.20;99.90
7016;DHT22;3548;48.402;9.990;2022-10-04T13:05:12;17.10;99.90
7016;DHT22;3548;48.402;9.990;2022-10-04T13:07:47;17.10;99.90
7016;DHT22;3548;48.402;9.990;2022-10-04T13:10:49;17.00;99.90
7016;DHT22;3548;48.402;9.990;2022-10-04T13:26:53;17.10;99.90
7016;DHT22;3548;48.402;9.990;2022-10-04T13:29:59;17.10;99.90
7016;DHT22;3548;48.402;9.990;2022-10-04T13:32:34;17.20;99.90
7016;DHT22;3548;48.402;9.990;2022-10-04T13:35:24;17.20;99.90
7016;DHT22;3548;48.402;9.990;2022-10-04T13:43:41;17.20;99.90
7016;DHT22;3548;48.402;9.990;2022-10-04T13:55:47;17.20;99.90
7016;DHT22;3548;48.402;9.990;2022-10-04T13:58:51;17.30;99.90
7016;DHT22;3548;48.402;9.990;2022-10-04T14:07:23;17.30;99.90
7016;DHT22;3548;48.402;9.990;2022-10-04T14:26:29;17.60;99.90
7016;DHT22;3548;48.402;9.990;2022-10-04T14:29:04;17.50;99.90
7016;DHT22;3548;48.402;9.990;2022-10-04T14:57:24;17.00;99.90
7016;DHT22;3548;48.402;9.990;2022-10-04T15:00:16;16.90;99.90
7016;DHT22;3548;48.402;9.990;2022-10-04T15:08:49;16.70;99.90
7016;DHT22;3548;48.402;9.990;2022-10-04T15:11:18;16.70;99.90
7016;DHT22;3548;48.402;9.990;2022-10-04T15:14:03;16.70;99.90
7016;DHT22;3548;48.402;9.990;2022-10-04T15:16:53;16.80;99.90
7016;DHT22;3548;48.402;9.990;2022-10-04T15:35:37;16.80;99.90
7016;DHT22;3548;48.402;9.990;2022-10-04T15:41:06;16.70;99.90
7016;DHT22;3548;48.402;9.990;2022-10-04T15:49:35;16.60;99.90
7016;DHT22;3548;48.402;9.990;2022-10-04T15:52:26;16.60;99.90
7016;DHT22;3548;48.402;9.990;2022-10-04T16:00:12;16.50;99.90
7016;DHT22;3548;48.402;9.990;2022-10-04T16:05:33;16.40;99.90
7016;DHT22;3548;48.402;9.990;2022-10-04T16:11:44;16.30;99.90
7016;DHT22;3548;48.402;9.990;2022-10-04T16:32:13;15.80;99.90
7016;DHT22;3548;48.402;9.990;2022-10-04T16:34:52;15.70;99.90
7016;DHT22;3548;48.402;9.990;2022-10-04T16:40:45;15.50;99.90
7016;DHT22;3548;48.402;9.990;2022-10-04T16:43:22;15.30;99.90
7016;DHT22;3548;48.402;9.990;2022-10-04T16:49:36;15.10;99.90
7016;DHT22;3548;48.402;9.990;2022-10-04T16:52:37;14.90;99.90
7016;DHT22;3548;48.402;9.990;2022-10-04T16:55:40;14.80;99.90
7016;DHT22;3548;48.402;9.990;2022-10-04T17:12:28;14.30;99.90
7016;DHT22;3548;48.402;9.990;2022-10-04T17:17:45;14.10;99.90
7016;DHT22;3548;48.402;9.990;2022-10-04T17:31:08;13.80;99.90
7016;DHT22;3548;48.402;9.990;2022-10-04T17:36:49;13.60;99.90
7016;DHT22;3548;48.402;9.990;2022-10-04T17:42:45;13.60;99.90
7016;DHT22;3548;48.402;9.990;2022-10-04T17:45:40;13.30;99.90
7016;DHT22;3548;48.402;9.990;2022-10-04T17:48:17;13.20;99.90
7016;DHT22;3548;48.402;9.990;2022-10-04T17:51:28;13.00;99.90
7016;DHT22;3548;48.402;9.990;2022-10-04T17:54:23;12.90;99.90
7016;DHT22;3548;48.402;9.990;2022-10-04T17:57:17;12.80;99.90
7016;DHT22;3548;48.402;9.990;2022-10-04T17:59:50;12.70;99.90
7016;DHT22;3548;48.402;9.990;2022-10-04T18:02:22;12.60;99.90
7016;DHT22;3548;48.402;9.990;2022-10-04T18:04:57;12.60;99.90
7016;DHT22;3548;48.402;9.990;2022-10-04T18:07:43;12.50;99.90
7016;DHT22;3548;48.402;9.990;2022-10-04T18:10:31;12.50;99.90
7016;DHT22;3548;48.402;9.990;2022-10-04T18:15:52;12.30;99.90
7016;DHT22;3548;48.402;9.990;2022-10-04T18:18:21;12.30;99.90
7016;DHT22;3548;48.402;9.990;2022-10-04T18:23:24;12.10;99.90
7016;DHT22;3548;48.402;9.990;2022-10-04T18:26:08;12.10;99.90
7016;DHT22;3548;48.402;9.990;2022-10-04T18:28:35;12.00;99.90
7016;DHT22;3548;48.402;9.990;2022-10-04T18:33:57;11.80;99.90
7016;DHT22;3548;48.402;9.990;2022-10-04T18:36:30;11.80;99.90
7016;DHT22;3548;48.402;9.990;2022-10-04T18:41:42;11.60;99.90
7016;DHT22;3548;48.402;9.990;2022-10-04T18:44:27;11.60;99.90
7016;DHT22;3548;48.402;9.990;2022-10-04T18:46:58;11.50;99.90
7016;DHT22;3548;48.402;9.990;2022-10-04T18:49:43;11.50;99.90
7016;DHT22;3548;48.402;9.990;2022-10-04T18:52:41;11.40;99.90
7016;DHT22;3548;48.402;9.990;2022-10-04T18:55:24;11.40;99.90
7016;DHT22;3548;48.402;9.990;2022-10-04T18:58:21;11.40;99.90
7016;DHT22;3548;48.402;9.990;2022-10-04T19:04:48;11.30;99.90
7016;DHT22;3548;48.402;9.990;2022-10-04T19:10:24;11.20;99.90
7016;DHT22;3548;48.402;9.990;2022-10-04T19:12:54;11.10;99.90
7016;DHT22;3548;48.402;9.990;2022-10-04T19:21:17;10.90;99.90
7016;DHT22;3548;48.402;9.990;2022-10-04T19:27:04;10.80;99.90
7016;DHT22;3548;48.402;9.990;2022-10-04T19:29:52;10.80;99.90
7016;DHT22;3548;48.402;9.990;2022-10-04T19:32:46;10.70;99.90
7016;DHT22;3548;48.402;9.990;2022-10-04T19:38:23;10.70;99.90
7016;DHT22;3548;48.402;9.990;2022-10-04T19:41:06;10.60;99.90
7016;DHT22;3548;48.402;9.990;2022-10-04T19:48:54;10.60;99.90
7016;DHT22;3548;48.402;9.990;2022-10-04T19:51:42;10.50;99.90
7016;DHT22;3548;48.402;9.990;2022-10-04T19:54:13;10.50;99.90
7016;DHT22;3548;48.402;9.990;2022-10-04T19:56:45;10.40;99.90
7016;DHT22;3548;48.402;9.990;2022-10-04T19:59:16;10.40;99.90
7016;DHT22;3548;48.402;9.990;2022-10-04T20:01:45;10.40;99.90
7016;DHT22;3548;48.402;9.990;2022-10-04T20:04:16;10.30;99.90
7016;DHT22;3548;48.402;9.990;2022-10-04T20:07:02;10.30;99.90
7016;DHT22;3548;48.402;9.990;2022-10-04T20:12:35;10.20;99.90
7016;DHT22;3548;48.402;9.990;2022-10-04T20:17:37;10.20;99.90
7016;DHT22;3548;48.402;9.990;2022-10-04T20:20:04;10.20;99.90
7016;DHT22;3548;48.402;9.990;2022-10-04T20:28:10;10.10;99.90
7016;DHT22;3548;48.402;9.990;2022-10-04T20:30:58;10.10;99.90
7016;DHT22;3548;48.402;9.990;2022-10-04T20:36:09;10.00;99.90
7016;DHT22;3548;48.402;9.990;2022-10-04T20:44:46;9.90;99.90
7016;DHT22;3548;48.402;9.990;2022-10-04T20:50:34;9.80;99.90
7016;DHT22;3548;48.402;9.990;2022-10-04T20:53:03;9.70;99.90
7016;DHT22;3548;48.402;9.990;2022-10-04T20:55:35;9.70;99.90
7016;DHT22;3548;48.402;9.990;2022-10-04T20:58:31;9.70;99.90
7016;DHT22;3548;48.402;9.990;2022-10-04T21:01:02;9.70;99.90
7016;DHT22;3548;48.402;9.990;2022-10-04T21:06:59;9.60;99.90
7016;DHT22;3548;48.402;9.990;2022-10-04T21:09:27;9.60;99.90
7016;DHT22;3548;48.402;9.990;2022-10-04T21:11:54;9.50;99.90
7016;DHT22;3548;48.402;9.990;2022-10-04T21:14:28;9.40;99.90
7016;DHT22;3548;48.402;9.990;2022-10-04T21:16:55;9.40;99.90
7016;DHT22;3548;48.402;9.990;2022-10-04T21:22:33;9.30;99.90
7016;DHT22;3548;48.402;9.990;2022-10-04T21:25:25;9.30;99.90
7016;DHT22;3548;48.402;9.990;2022-10-04T21:27:51;9.30;99.90
7016;DHT22;3548;48.402;9.990;2022-10-04T21:30:17;9.20;99.90
7016;DHT22;3548;48.402;9.990;2022-10-04T21:32:44;9.20;99.90
7016;DHT22;3548;48.402;9.990;2022-10-04T21:35:11;9.20;99.90
7016;DHT22;3548;48.402;9.990;2022-10-04T21:37:37;9.20;99.90
7016;DHT22;3548;48.402;9.990;2022-10-04T21:40:04;9.20;99.90
7016;DHT22;3548;48.402;9.990;2022-10-04T21:42:30;9.20;99.90
7016;DHT22;3548;48.402;9.990;2022-10-04T21:44:56;9.20;99.90
7016;DHT22;3548;48.402;9.990;2022-10-04T21:47:21;9.10;99.90
7016;DHT22;3548;48.402;9.990;2022-10-04T21:49:48;9.10;99.90
7016;DHT22;3548;48.402;9.990;2022-10-04T21:52:15;9.10;99.90
7016;DHT22;3548;48.402;9.990;2022-10-04T21:54:42;9.10;99.90
7016;DHT22;3548;48.402;9.990;2022-10-04T21:57:08;9.00;99.90
7016;DHT22;3548;48.402;9.990;2022-10-04T21:59:34;9.00;99.90
7016;DHT22;3548;48.402;9.990;2022-10-04T22:01:59;9.00;99.90
7016;DHT22;3548;48.402;9.990;2022-10-04T22:04:25;9.00;99.90
7016;DHT22;3548;48.402;9.990;2022-10-04T22:06:51;8.90;99.90
7016;DHT22;3548;48.402;9.990;2022-10-04T22:09:16;8.90;99.90
7016;DHT22;3548;48.402;9.990;2022-10-04T22:11:42;8.80;99.90
7016;DHT22;3548;48.402;9.990;2022-10-04T22:14:07;8.90;99.90
7016;DHT22;3548;48.402;9.990;2022-10-04T22:16:33;8.80;99.90
7016;DHT22;3548;48.402;9.990;2022-10-04T22:18:58;8.80;99.90
7016;DHT22;3548;48.402;9.990;2022-10-04T22:21:24;8.80;99.90
7016;DHT22;3548;48.402;9.990;2022-10-04T22:23:50;8.80;99.90
7016;DHT22;3548;48.402;9.990;2022-10-04T22:26:18;8.70;99.90
7016;DHT22;3548;48.402;9.990;2022-10-04T22:28:45;8.80;99.90
7016;DHT22;3548;48.402;9.990;2022-10-04T22:31:26;8.70;99.90
7016;DHT22;3548;48.402;9.990;2022-10-04T22:33:52;8.70;99.90
7016;DHT22;3548;48.402;9.990;2022-10-04T22:36:20;8.70;99.90
7016;DHT22;3548;48.402;9.990;2022-10-04T22:41:16;8.70;99.90
7016;DHT22;3548;48.402;9.990;2022-10-04T22:43:48;8.60;99.90
7016;DHT22;3548;48.402;9.990;2022-10-04T22:46:18;8.60;99.90
7016;DHT22;3548;48.402;9.990;2022-10-04T22:48:45;8.60;99.90
7016;DHT22;3548;48.402;9.990;2022-10-04T22:51:12;8.60;99.90
7016;DHT22;3548;48.402;9.990;2022-10-04T22:53:46;8.60;99.90
7016;DHT22;3548;48.402;9.990;2022-10-04T22:56:13;8.60;99.90
7016;DHT22;3548;48.402;9.990;2022-10-04T22:58:39;8.50;99.90
7016;DHT22;3548;48.402;9.990;2022-10-04T23:01:14;8.50;99.90
7016;DHT22;3548;48.402;9.990;2022-10-04T23:03:44;8.40;99.90
7016;DHT22;3548;48.402;9.990;2022-10-04T23:06:10;8.40;99.90
7016;DHT22;3548;48.402;9.990;2022-10-04T23:08:39;8.40;99.90
7016;DHT22;3548;48.402;9.990;2022-10-04T23:11:06;8.30;99.90
7016;DHT22;3548;48.402;9.990;2022-10-04T23:13:31;8.30;99.90
7016;DHT22;3548;48.402;9.990;2022-10-04T23:16:00;8.30;99.90
7016;DHT22;3548;48.402;9.990;2022-10-04T23:18:28;8.30;99.90
7016;DHT22;3548;48.402;9.990;2022-10-04T23:20:59;8.30;99.90
7016;DHT22;3548;48.402;9.990;2022-10-04T23:23:26;8.20;99.90
7016;DHT22;3548;48.402;9.990;2022-10-04T23:25:53;8.20;99.90
7016;DHT22;3548;48.402;9.990;2022-10-04T23:28:19;8.20;99.90
7016;DHT22;3548;48.402;9.990;2022-10-04T23:30:49;8.20;99.90
7016;DHT22;3548;48.402;9.990;2022-10-04T23:33:20;8.20;99.90
7016;DHT22;3548;48.402;9.990;2022-10-04T23:35:47;8.20;99.90
7016;DHT22;3548;48.402;9.990;2022-10-04T23:38:15;8.20;99.90
7016;DHT22;3548;48.402;9.990;2022-10-04T23:40:41;8.20;99.90
7016;DHT22;3548;48.402;9.990;2022-10-04T23:43:22;8.20;99.90
7016;DHT22;3548;48.402;9.990;2022-10-04T23:45:55;8.30;99.90
7016;DHT22;3548;48.402;9.990;2022-10-04T23:48:25;8.30;99.90
7016;DHT22;3548;48.402;9.990;2022-10-04T23:50:53;8.30;99.90
7016;DHT22;3548;48.402;9.990;2022-10-04T23:53:29;8.30;99.90
7016;DHT22;3548;48.402;9.990;2022-10-04T23:56:01;8.30;99.90
7016;DHT22;3548;48.402;9.990;2022-10-04T23:58:31;8.30;99.90
